createdAt,value
2019-04-22T00:02:20.704Z,99.90
2019-04-22T00:05:06.114Z,99.90
2019-04-22T00:07:53.315Z,99.90
2019-04-22T00:10:28.942Z,99.90
2019-04-22T00:13:01.316Z,99.90
2019-04-22T00:15:32.630Z,99.90
2019-04-22T00:18:16.186Z,99.90
2019-04-22T00:20:43.662Z,99.90
2019-04-22T00:23:14.124Z,99.90
2019-04-22T00:25:48.377Z,99.90
2019-04-22T00:28:24.998Z,99.90
2019-04-22T00:30:56.254Z,99.90
2019-04-22T00:33:35.489Z,99.90
2019-04-22T00:36:03.624Z,99.90
2019-04-22T00:38:42.026Z,99.90
2019-04-22T00:41:17.116Z,99.90
2019-04-22T00:43:54.912Z,99.90
2019-04-22T00:46:18.142Z,99.90
2019-04-22T00:49:31.563Z,99.90
2019-04-22T00:51:28.681Z,99.90
2019-04-22T00:53:56.093Z,99.90
2019-04-22T00:56:27.769Z,99.90
2019-04-22T00:59:08.454Z,99.90
2019-04-22T01:01:37.212Z,99.90
2019-04-22T01:04:19.931Z,99.90
2019-04-22T01:06:44.562Z,99.90
2019-04-22T01:09:17.424Z,99.90
2019-04-22T01:11:52.620Z,99.90
2019-04-22T01:14:29.791Z,99.90
2019-04-22T01:17:01.473Z,99.90
2019-04-22T01:19:43.860Z,99.90
2019-04-22T01:22:09.858Z,99.90
2019-04-22T01:24:38.666Z,99.90
2019-04-22T01:27:07.966Z,99.90
2019-04-22T01:29:43.708Z,99.90
2019-04-22T01:32:13.209Z,99.90
2019-04-22T01:34:51.457Z,99.90
2019-04-22T01:37:32.978Z,99.90
2019-04-22T01:40:14.859Z,99.90
2019-04-22T01:42:51.913Z,99.90
2019-04-22T01:45:19.346Z,99.90
2019-04-22T01:47:49.232Z,99.90
2019-04-22T01:50:25.819Z,99.90
2019-04-22T01:53:06.452Z,99.90
2019-04-22T01:55:37.003Z,99.90
2019-04-22T01:58:01.495Z,99.90
2019-04-22T02:00:40.262Z,99.90
2019-04-22T02:03:17.831Z,99.90
2019-04-22T02:05:56.662Z,99.90
2019-04-22T02:08:31.195Z,99.90
2019-04-22T02:10:54.624Z,99.90
2019-04-22T02:13:38.299Z,99.90
2019-04-22T02:16:12.485Z,99.90
2019-04-22T02:18:39.584Z,99.90
2019-04-22T02:21:13.681Z,99.90
2019-04-22T02:26:29.911Z,99.90
2019-04-22T02:29:06.638Z,99.90
2019-04-22T02:34:13.734Z,99.90
2019-04-22T02:36:35.957Z,99.90
2019-04-22T02:39:16.239Z,99.90
2019-04-22T02:41:43.927Z,99.90
2019-04-22T02:44:20.379Z,99.90
2019-04-22T02:47:07.860Z,99.90
2019-04-22T02:52:03.926Z,99.90
2019-04-22T02:57:16.564Z,99.90
2019-04-22T02:59:54.821Z,99.90
2019-04-22T03:02:23.487Z,99.90
2019-04-22T03:04:47.158Z,99.90
2019-04-22T03:07:23.240Z,99.90
2019-04-22T03:10:04.744Z,99.90
2019-04-22T03:12:29.218Z,99.90
2019-04-22T03:14:59.925Z,99.90
2019-04-22T03:17:41.478Z,99.90
2019-04-22T03:22:57.549Z,99.90
2019-04-22T03:28:08.805Z,99.90
2019-04-22T03:33:19.047Z,99.90
2019-04-22T03:35:45.417Z,99.90
2019-04-22T03:38:07.179Z,99.90
2019-04-22T03:40:54.828Z,99.90
2019-04-22T03:43:46.625Z,99.90
2019-04-22T03:45:58.818Z,99.90
2019-04-22T03:48:26.139Z,99.90
2019-04-22T03:51:11.984Z,99.90
2019-04-22T03:53:33.623Z,99.90
2019-04-22T03:56:28.637Z,99.90
2019-04-22T03:58:51.202Z,99.90
2019-04-22T04:01:29.878Z,99.90
2019-04-22T04:04:01.094Z,99.90
2019-04-22T04:06:32.055Z,99.90
2019-04-22T04:09:04.590Z,99.90
2019-04-22T04:11:45.561Z,99.90
2019-04-22T04:14:09.587Z,99.90
2019-04-22T04:16:47.712Z,99.90
2019-04-22T04:19:27.807Z,99.90
2019-04-22T04:21:41.865Z,99.90
2019-04-22T04:24:42.250Z,99.90
2019-04-22T04:27:09.129Z,99.90
2019-04-22T04:29:45.754Z,99.90
2019-04-22T04:34:54.105Z,99.90
2019-04-22T04:37:25.522Z,99.90
2019-04-22T04:40:05.715Z,99.90
2019-04-22T04:42:26.023Z,99.90
2019-04-22T04:47:39.003Z,99.90
2019-04-22T04:50:04.541Z,99.90
2019-04-22T04:55:16.723Z,99.90
2019-04-22T05:00:39.269Z,99.90
2019-04-22T05:02:44.642Z,99.90
2019-04-22T05:07:48.340Z,99.90
2019-04-22T05:10:35.037Z,99.90
2019-04-22T05:12:56.707Z,99.90
2019-04-22T05:18:10.187Z,99.90
2019-04-22T05:20:55.238Z,99.90
2019-04-22T05:23:20.778Z,99.90
2019-04-22T05:25:41.042Z,99.90
2019-04-22T05:28:20.317Z,99.90
2019-04-22T05:30:46.038Z,99.90
2019-04-22T05:33:32.084Z,99.90
2019-04-22T05:36:03.067Z,99.90
2019-04-22T05:38:44.314Z,99.90
2019-04-22T05:41:08.858Z,99.90
2019-04-22T05:43:40.813Z,99.90
2019-04-22T05:46:15.353Z,99.90
2019-04-22T05:48:54.251Z,99.90
2019-04-22T05:51:29.373Z,99.90
2019-04-22T05:53:53.891Z,99.90
2019-04-22T05:56:47.191Z,99.90
2019-04-22T05:59:03.492Z,99.90
2019-04-22T06:01:43.520Z,99.90
2019-04-22T06:04:11.430Z,99.90
2019-04-22T06:06:51.737Z,99.90
2019-04-22T06:09:24.350Z,99.90
2019-04-22T06:11:51.744Z,99.90
2019-04-22T06:14:26.142Z,99.90
2019-04-22T06:17:08.179Z,99.90
2019-04-22T06:19:38.600Z,99.90
2019-04-22T06:22:22.616Z,99.90
2019-04-22T06:24:49.033Z,99.90
2019-04-22T06:27:21.435Z,99.90
2019-04-22T06:29:45.817Z,99.90
2019-04-22T06:35:11.381Z,99.90
2019-04-22T06:37:38.029Z,99.90
2019-04-22T06:40:10.162Z,99.90
2019-04-22T06:42:42.475Z,99.90
2019-04-22T06:47:59.113Z,99.90
2019-04-22T06:50:24.505Z,99.90
2019-04-22T06:52:54.587Z,99.90
2019-04-22T06:55:35.767Z,99.90
2019-04-22T06:57:59.853Z,99.90
2019-04-22T07:00:38.119Z,99.90
2019-04-22T07:03:30.405Z,99.90
2019-04-22T07:05:49.482Z,99.90
2019-04-22T07:08:39.309Z,99.90
2019-04-22T07:10:50.727Z,99.90
2019-04-22T07:13:27.513Z,99.90
2019-04-22T07:18:39.708Z,99.90
2019-04-22T07:21:06.347Z,99.90
2019-04-22T07:26:18.793Z,99.90
2019-04-22T07:28:50.659Z,99.90
2019-04-22T07:31:20.499Z,99.90
2019-04-22T07:33:58.390Z,99.90
2019-04-22T07:39:05.718Z,99.90
2019-04-22T07:41:38.416Z,98.90
2019-04-22T07:46:53.370Z,92.60
2019-04-22T07:49:18.379Z,92.40
2019-04-22T07:51:49.809Z,92.90
2019-04-22T07:54:25.821Z,93.40
2019-04-22T07:57:01.157Z,93.90
2019-04-22T07:59:35.127Z,95.40
2019-04-22T08:02:04.484Z,94.80
2019-04-22T08:04:55.789Z,95.20
2019-04-22T08:07:30.410Z,96.10
2019-04-22T08:09:53.926Z,95.70
2019-04-22T08:12:20.240Z,94.20
2019-04-22T08:14:52.172Z,93.10
2019-04-22T08:20:16.248Z,88.90
2019-04-22T08:22:39.993Z,84.40
2019-04-22T08:25:10.161Z,83.90
2019-04-22T08:27:46.856Z,83.70
2019-04-22T08:30:26.437Z,86.20
2019-04-22T08:32:52.749Z,87.30
2019-04-22T08:35:40.926Z,87.40
2019-04-22T08:37:57.676Z,89.70
2019-04-22T08:40:45.502Z,91.50
2019-04-22T08:43:26.776Z,92.50
2019-04-22T08:48:23.029Z,92.60
2019-04-22T08:50:50.790Z,92.40
2019-04-22T08:53:31.828Z,91.70
2019-04-22T08:56:06.919Z,91.60
2019-04-22T08:58:31.687Z,91.40
2019-04-22T09:03:39.819Z,91.90
2019-04-22T09:06:19.859Z,93.00
2019-04-22T09:08:48.754Z,91.20
2019-04-22T09:11:27.035Z,84.90
2019-04-22T09:14:02.959Z,77.70
2019-04-22T09:16:33.335Z,75.20
2019-04-22T09:19:02.704Z,74.00
2019-04-22T09:24:14.885Z,73.30
2019-04-22T09:26:41.762Z,67.80
2019-04-22T09:29:24.421Z,63.60
2019-04-22T09:31:55.552Z,60.70
2019-04-22T09:34:23.416Z,59.00
2019-04-22T09:36:59.432Z,57.60
2019-04-22T09:39:29.417Z,58.00
2019-04-22T09:41:59.766Z,58.70
2019-04-22T09:47:16.505Z,57.90
2019-04-22T09:49:53.125Z,59.20
2019-04-22T09:52:16.181Z,60.40
2019-04-22T09:54:57.905Z,58.90
2019-04-22T09:57:21.084Z,58.20
2019-04-22T10:00:00.583Z,59.00
2019-04-22T10:02:34.423Z,59.30
2019-04-22T10:05:09.413Z,56.80
2019-04-22T10:07:31.828Z,55.80
2019-04-22T10:10:18.845Z,54.60
2019-04-22T10:12:42.293Z,54.00
2019-04-22T10:15:13.681Z,55.00
2019-04-22T10:17:54.024Z,52.90
2019-04-22T10:20:26.984Z,52.20
2019-04-22T10:23:03.713Z,52.90
2019-04-22T10:25:29.573Z,51.90
2019-04-22T10:28:10.439Z,52.20
2019-04-22T10:30:48.830Z,52.50
2019-04-22T10:33:10.098Z,53.00
2019-04-22T10:35:25.272Z,52.40
2019-04-22T10:37:56.480Z,53.70
2019-04-22T10:40:40.607Z,55.40
2019-04-22T10:43:12.521Z,55.00
2019-04-22T10:45:46.033Z,53.80
2019-04-22T10:48:18.540Z,52.90
2019-04-22T10:50:50.671Z,52.00
2019-04-22T10:53:23.781Z,52.20
2019-04-22T10:55:56.493Z,52.60
2019-04-22T10:58:28.807Z,54.40
2019-04-22T11:01:00.320Z,56.90
2019-04-22T11:03:33.177Z,57.90
2019-04-22T11:06:07.450Z,58.50
2019-04-22T11:08:46.633Z,59.30
2019-04-22T11:11:26.522Z,59.30
2019-04-22T11:13:47.581Z,56.60
2019-04-22T11:16:21.413Z,56.90
2019-04-22T11:18:55.728Z,56.30
2019-04-22T11:21:29.498Z,55.60
2019-04-22T11:24:01.192Z,54.20
2019-04-22T11:26:32.836Z,54.70
2019-04-22T11:29:05.372Z,55.30
2019-04-22T11:31:38.790Z,55.70
2019-04-22T11:34:11.031Z,54.90
2019-04-22T11:36:43.099Z,54.50
2019-04-22T11:39:16.814Z,54.60
2019-04-22T11:41:50.128Z,56.10
2019-04-22T11:44:21.415Z,55.60
2019-04-22T11:46:53.667Z,57.40
2019-04-22T11:49:25.885Z,57.60
2019-04-22T11:51:58.827Z,57.00
2019-04-22T11:54:31.091Z,57.40
2019-04-22T11:57:05.481Z,57.50
2019-04-22T11:59:38.674Z,58.80
2019-04-22T12:02:11.975Z,61.30
2019-04-22T12:04:46.111Z,63.90
2019-04-22T12:07:19.037Z,63.40
2019-04-22T12:09:51.402Z,62.10
2019-04-22T12:12:23.713Z,63.10
2019-04-22T12:14:58.700Z,62.20
2019-04-22T12:17:33.909Z,59.50
2019-04-22T12:20:08.797Z,58.30
2019-04-22T12:22:41.061Z,57.50
2019-04-22T12:25:28.022Z,57.10
2019-04-22T12:27:48.354Z,55.70
2019-04-22T12:30:21.791Z,54.70
2019-04-22T12:32:55.160Z,54.80
2019-04-22T12:35:28.439Z,54.40
2019-04-22T12:38:03.361Z,54.70
2019-04-22T12:40:42.438Z,55.10
2019-04-22T12:43:09.912Z,56.00
2019-04-22T12:45:40.691Z,54.50
2019-04-22T12:48:12.932Z,54.90
2019-04-22T12:50:46.511Z,55.80
2019-04-22T12:53:21.945Z,56.80
2019-04-22T12:55:54.769Z,58.40
2019-04-22T12:58:25.582Z,59.60
2019-04-22T13:00:58.674Z,61.00
2019-04-22T13:03:31.994Z,61.70
2019-04-22T13:06:07.686Z,61.50
2019-04-22T13:08:41.395Z,59.90
2019-04-22T13:11:19.471Z,60.20
2019-04-22T13:13:49.160Z,60.40
2019-04-22T13:16:22.779Z,59.30
2019-04-22T13:18:59.421Z,59.30
2019-04-22T13:21:27.114Z,57.80
2019-04-22T13:23:59.269Z,57.00
2019-04-22T13:26:31.990Z,57.80
2019-04-22T13:29:05.184Z,56.00
2019-04-22T13:31:38.340Z,56.60
2019-04-22T13:34:18.118Z,55.70
2019-04-22T13:36:46.629Z,55.60
2019-04-22T13:39:18.804Z,55.50
2019-04-22T13:41:56.538Z,55.30
2019-04-22T13:44:25.099Z,55.10
2019-04-22T13:47:17.034Z,55.10
2019-04-22T13:50:11.650Z,54.60
2019-04-22T13:52:40.297Z,54.50
2019-04-22T13:55:06.761Z,54.90
2019-04-22T13:57:34.444Z,53.90
2019-04-22T13:59:49.952Z,53.40
2019-04-22T14:02:52.814Z,53.40
2019-04-22T14:05:26.796Z,54.20
2019-04-22T14:08:00.846Z,53.60
2019-04-22T14:10:32.134Z,53.50
2019-04-22T14:13:05.635Z,53.50
2019-04-22T14:15:38.062Z,52.90
2019-04-22T14:18:11.075Z,52.60
2019-04-22T14:20:45.096Z,52.50
2019-04-22T14:23:17.866Z,52.70
2019-04-22T14:25:50.891Z,52.20
2019-04-22T14:28:25.054Z,50.70
2019-04-22T14:31:00.439Z,50.90
2019-04-22T14:33:34.149Z,51.10
2019-04-22T14:36:07.422Z,51.30
2019-04-22T14:38:39.825Z,49.90
2019-04-22T14:41:30.553Z,50.30
2019-04-22T14:44:49.461Z,50.20
2019-04-22T14:46:53.617Z,49.50
2019-04-22T14:49:22.289Z,50.90
2019-04-22T14:51:53.447Z,50.80
2019-04-22T14:54:13.772Z,52.30
2019-04-22T14:56:34.160Z,52.20
2019-04-22T14:59:07.018Z,52.10
2019-04-22T15:01:41.425Z,51.90
2019-04-22T15:04:13.317Z,53.00
2019-04-22T15:06:48.274Z,52.20
2019-04-22T15:09:19.734Z,51.90
2019-04-22T15:12:03.180Z,51.40
2019-04-22T15:14:25.729Z,51.40
2019-04-22T15:17:16.569Z,51.00
2019-04-22T15:20:19.529Z,50.60
2019-04-22T15:22:52.686Z,50.80
2019-04-22T15:25:26.256Z,51.30
2019-04-22T15:27:59.358Z,52.20
2019-04-22T15:30:33.097Z,50.70
2019-04-22T15:33:05.551Z,50.80
2019-04-22T15:35:38.473Z,51.10
2019-04-22T15:38:11.305Z,51.30
2019-04-22T15:40:44.847Z,51.40
2019-04-22T15:43:18.503Z,51.80
2019-04-22T15:45:50.880Z,51.50
2019-04-22T15:48:25.147Z,51.50
2019-04-22T15:50:58.365Z,51.80
2019-04-22T15:53:31.552Z,52.90
2019-04-22T15:56:04.973Z,53.40
2019-04-22T15:58:37.681Z,53.80
2019-04-22T16:01:18.142Z,54.30
2019-04-22T16:03:44.854Z,54.60
2019-04-22T16:06:17.745Z,55.10
2019-04-22T16:08:49.889Z,55.30
2019-04-22T16:11:22.557Z,55.90
2019-04-22T16:13:54.720Z,56.60
2019-04-22T16:16:28.360Z,57.10
2019-04-22T16:19:00.779Z,58.20
2019-04-22T16:21:44.775Z,58.90
2019-04-22T16:24:20.195Z,59.90
2019-04-22T16:26:57.950Z,60.50
2019-04-22T16:29:31.542Z,61.20
2019-04-22T16:32:05.192Z,62.00
2019-04-22T16:34:38.287Z,61.90
2019-04-22T16:37:10.567Z,62.70
2019-04-22T16:39:45.418Z,63.00
2019-04-22T16:42:27.814Z,63.60
2019-04-22T16:44:53.625Z,64.50
2019-04-22T16:47:25.729Z,64.80
2019-04-22T16:49:57.556Z,65.30
2019-04-22T16:52:30.137Z,66.00
2019-04-22T16:55:03.263Z,65.90
2019-04-22T16:57:35.830Z,66.20
2019-04-22T17:00:11.371Z,66.30
2019-04-22T17:03:03.009Z,65.80
2019-04-22T17:06:03.402Z,65.70
2019-04-22T17:08:36.896Z,65.50
2019-04-22T17:11:09.707Z,65.30
2019-04-22T17:13:42.400Z,65.60
2019-04-22T17:16:15.975Z,65.70
2019-04-22T17:18:48.156Z,65.90
2019-04-22T17:21:19.661Z,66.50
2019-04-22T17:23:51.994Z,67.00
2019-04-22T17:26:24.369Z,67.10
2019-04-22T17:28:57.650Z,67.60
2019-04-22T17:31:29.374Z,67.40
2019-04-22T17:34:02.471Z,68.00
2019-04-22T17:36:36.245Z,67.20
2019-04-22T17:39:22.791Z,66.90
2019-04-22T17:42:03.453Z,66.10
2019-04-22T17:44:42.331Z,66.10
2019-04-22T17:47:45.213Z,66.00
2019-04-22T17:50:31.430Z,65.90
2019-04-22T17:53:03.481Z,66.40
2019-04-22T17:55:36.582Z,66.70
2019-04-22T17:58:07.492Z,67.80
2019-04-22T18:00:36.384Z,67.20
2019-04-22T18:03:08.762Z,67.00
2019-04-22T18:05:39.208Z,66.80
2019-04-22T18:08:25.506Z,67.40
2019-04-22T18:11:06.309Z,67.50
2019-04-22T18:13:40.385Z,67.50
2019-04-22T18:16:15.030Z,68.00
2019-04-22T18:18:47.386Z,68.40
2019-04-22T18:21:14.465Z,68.70
2019-04-22T18:23:44.715Z,69.20
2019-04-22T18:26:26.226Z,69.50
2019-04-22T18:29:02.837Z,69.90
2019-04-22T18:31:26.880Z,70.40
2019-04-22T18:34:04.124Z,70.70
2019-04-22T18:36:40.525Z,71.00
2019-04-22T18:39:25.186Z,71.40
2019-04-22T18:41:51.994Z,71.70
2019-04-22T18:44:27.153Z,71.60
2019-04-22T18:47:03.708Z,72.10
2019-04-22T18:49:37.587Z,72.50
2019-04-22T18:52:24.376Z,72.50
2019-04-22T18:55:24.666Z,72.60
2019-04-22T18:58:04.173Z,72.90
2019-04-22T19:00:27.459Z,73.10
2019-04-22T19:03:07.459Z,73.40
2019-04-22T19:05:49.447Z,73.80
2019-04-22T19:08:28.814Z,74.00
2019-04-22T19:11:08.551Z,74.40
2019-04-22T19:16:27.739Z,75.00
2019-04-22T19:18:50.178Z,75.40
2019-04-22T19:21:22.350Z,75.60
2019-04-22T19:23:53.973Z,76.20
2019-04-22T19:26:48.229Z,76.70
2019-04-22T19:29:06.874Z,77.00
2019-04-22T19:31:43.960Z,77.30
2019-04-22T19:34:16.666Z,77.80
2019-04-22T19:36:51.610Z,77.90
2019-04-22T19:39:18.160Z,78.20
2019-04-22T19:42:04.737Z,78.40
2019-04-22T19:44:33.321Z,78.70
2019-04-22T19:47:21.083Z,78.80
2019-04-22T19:49:48.363Z,78.80
2019-04-22T19:54:43.972Z,79.20
2019-04-22T19:57:11.721Z,79.10
2019-04-22T19:59:52.978Z,79.40
2019-04-22T20:02:44.777Z,80.00
2019-04-22T20:05:37.527Z,80.10
2019-04-22T20:08:14.477Z,80.20
2019-04-22T20:10:44.079Z,80.50
2019-04-22T20:13:28.799Z,81.20
2019-04-22T20:15:43.348Z,80.80
2019-04-22T20:20:58.584Z,81.10
2019-04-22T20:23:25.648Z,81.70
2019-04-22T20:26:00.581Z,82.00
2019-04-22T20:28:43.307Z,82.40
2019-04-22T20:31:14.802Z,82.70
2019-04-22T20:33:50.241Z,83.00
2019-04-22T20:36:42.590Z,83.40
2019-04-22T20:38:50.550Z,83.50
2019-04-22T20:41:19.078Z,83.80
2019-04-22T20:43:56.526Z,83.70
2019-04-22T20:46:33.069Z,83.60
2019-04-22T20:49:04.928Z,83.70
2019-04-22T20:51:50.214Z,84.00
2019-04-22T20:54:12.386Z,83.70
2019-04-22T20:56:45.204Z,83.70
2019-04-22T20:59:19.056Z,83.60
2019-04-22T21:01:55.209Z,83.50
2019-04-22T21:04:21.868Z,83.50
2019-04-22T21:07:02.223Z,83.30
2019-04-22T21:09:37.899Z,83.50
2019-04-22T21:12:09.036Z,83.30
2019-04-22T21:14:55.231Z,83.50
2019-04-22T21:17:22.705Z,83.70
2019-04-22T21:20:00.581Z,83.80
2019-04-22T21:22:35.446Z,83.80
2019-04-22T21:25:02.452Z,84.50
2019-04-22T21:27:45.070Z,84.10
2019-04-22T21:30:10.668Z,83.80
2019-04-22T21:32:45.127Z,84.00
2019-04-22T21:35:33.261Z,84.20
2019-04-22T21:38:06.553Z,84.20
2019-04-22T21:40:27.502Z,84.00
2019-04-22T21:43:08.906Z,84.30
2019-04-22T21:45:32.213Z,84.20
2019-04-22T21:51:04.898Z,84.60
2019-04-22T21:53:25.293Z,84.30
2019-04-22T21:56:00.062Z,84.40
2019-04-22T21:58:49.461Z,84.50
2019-04-22T22:01:29.245Z,84.40
2019-04-22T22:03:55.134Z,84.50
2019-04-22T22:06:16.694Z,84.20
2019-04-22T22:09:05.875Z,84.10
2019-04-22T22:11:27.751Z,84.30
2019-04-22T22:14:02.171Z,84.00
2019-04-22T22:16:32.046Z,84.00
2019-04-22T22:19:10.952Z,84.00
2019-04-22T22:21:51.151Z,83.60
2019-04-22T22:24:22.667Z,83.90
2019-04-22T22:26:55.809Z,83.50
2019-04-22T22:29:36.814Z,83.40
2019-04-22T22:32:04.812Z,83.30
2019-04-22T22:34:34.974Z,83.50
2019-04-22T22:37:03.558Z,83.80
2019-04-22T22:39:35.468Z,83.40
2019-04-22T22:41:54.227Z,83.50
2019-04-22T22:44:34.421Z,83.30
2019-04-22T22:47:20.961Z,83.70
2019-04-22T22:49:56.542Z,83.40
2019-04-22T22:55:06.921Z,83.40
2019-04-22T22:57:38.358Z,84.40
2019-04-22T23:00:03.898Z,83.30
2019-04-22T23:02:46.939Z,83.40
2019-04-22T23:05:22.306Z,83.50
2019-04-22T23:07:55.459Z,83.40
2019-04-22T23:10:24.958Z,83.80
2019-04-22T23:15:27.800Z,84.10
2019-04-22T23:17:45.588Z,84.30
2019-04-22T23:20:27.726Z,84.60
2019-04-22T23:23:14.313Z,84.60
2019-04-22T23:25:49.991Z,85.00
2019-04-22T23:28:30.026Z,84.80
2019-04-22T23:31:37.219Z,84.70
2019-04-22T23:34:18.412Z,85.10
2019-04-22T23:37:05.375Z,85.20
2019-04-22T23:39:47.727Z,85.10
2019-04-22T23:42:21.973Z,85.00
2019-04-22T23:44:50.333Z,85.30
2019-04-22T23:47:26.023Z,85.20
2019-04-22T23:50:09.423Z,85.30
2019-04-22T23:52:49.407Z,85.30
2019-04-22T23:55:22.893Z,85.40
2019-04-22T23:57:58.449Z,85.60
